Time;durP1;ratioP1;P1;durP2;ratioP2;P2;SDS_P1;SDS_P2;PMS_P1;PMS_P2;Temp;Humidity;BMP_temperature;BMP_pressure;BME280_temperature;BME280_humidity;BME280_pressure;Samples;Min_cycle;Max_cycle;Signal;HPM_P1;HPM_P2
2023/10/18 00:02:06;;;;;;;9.53;1.10;;;5.50;99.90;;;;;;6095300;23;20195;-92
2023/10/18 00:04:31;;;;;;;0.73;0.73;;;5.40;99.90;;;;;;6119176;23;20589;-93
2023/10/18 00:06:58;;;;;;;1.00;1.00;;;5.30;99.90;;;;;;6095051;23;20259;-93
2023/10/18 00:12:09;;;;;;;0.67;0.67;;;5.40;99.90;;;;;;6098361;23;20196;-94
2023/10/18 00:14:35;;;;;;;1.30;1.00;;;5.50;99.90;;;;;;6118738;23;20188;-93
2023/10/18 00:17:01;;;;;;;0.73;0.73;;;5.50;99.90;;;;;;6094641;23;20658;-93
2023/10/18 00:19:27;;;;;;;0.80;0.80;;;5.50;99.90;;;;;;6118840;23;20160;-92
2023/10/18 00:21:52;;;;;;;0.83;0.60;;;5.40;99.90;;;;;;6095250;23;20160;-93
2023/10/18 00:24:18;;;;;;;1.00;0.83;;;5.40;99.90;;;;;;6094292;23;20207;-93
2023/10/18 00:26:45;;;;;;;1.10;1.00;;;5.20;99.90;;;;;;6094547;23;20637;-92
2023/10/18 00:29:12;;;;;;;0.67;0.67;;;5.20;99.90;;;;;;6094736;23;20620;-92
2023/10/18 00:31:37;;;;;;;5.40;1.27;;;5.10;99.90;;;;;;6094808;23;20172;-92
2023/10/18 00:34:06;;;;;;;1.10;1.00;;;5.10;99.90;;;;;;6119732;23;20187;-92
2023/10/18 00:36:32;;;;;;;0.60;0.60;;;5.20;99.90;;;;;;6095056;23;20211;-93
2023/10/18 00:38:58;;;;;;;2.27;2.07;;;5.20;99.90;;;;;;6118328;23;20199;-94
2023/10/18 00:41:32;;;;;;;0.83;0.83;;;5.30;99.90;;;;;;6095127;23;20224;-93
2023/10/18 00:43:59;;;;;;;1.07;1.07;;;5.30;99.90;;;;;;6118785;23;20191;-92
2023/10/18 00:46:25;;;;;;;0.80;0.80;;;5.20;99.90;;;;;;6094857;23;20168;-93
2023/10/18 00:48:51;;;;;;;1.27;1.17;;;5.10;99.90;;;;;;6119194;23;20175;-93
2023/10/18 00:51:20;;;;;;;0.63;0.53;;;5.10;99.90;;;;;;6094177;23;20215;-93
2023/10/18 00:53:50;;;;;;;1.40;0.93;;;5.00;99.90;;;;;;6094782;23;20207;-92
2023/10/18 00:56:16;;;;;;;0.93;0.90;;;5.00;99.90;;;;;;6095799;23;20208;-92
2023/10/18 00:58:44;;;;;;;3.63;2.43;;;5.00;99.90;;;;;;6096515;23;20206;-93
2023/10/18 01:01:10;;;;;;;1.07;0.93;;;5.10;99.90;;;;;;6097212;23;20168;-92
2023/10/18 01:03:45;;;;;;;1.10;1.10;;;5.10;99.90;;;;;;6120818;23;20203;-91
2023/10/18 01:06:16;;;;;;;1.70;1.60;;;5.10;99.90;;;;;;6120412;23;20211;-92
2023/10/18 01:08:44;;;;;;;3.90;2.47;;;5.10;99.90;;;;;;6120107;23;20200;-92
2023/10/18 01:11:11;;;;;;;1.00;0.97;;;5.10;99.90;;;;;;6096981;23;20269;-93
2023/10/18 01:13:40;;;;;;;2.00;1.90;;;5.10;99.90;;;;;;6120690;23;20160;-91
2023/10/18 01:16:14;;;;;;;0.67;0.67;;;5.10;99.90;;;;;;6097275;23;20184;-93
2023/10/18 01:18:44;;;;;;;0.47;0.47;;;5.10;99.90;;;;;;6097908;23;20195;-92
2023/10/18 01:21:16;;;;;;;1.30;1.20;;;5.10;99.90;;;;;;6120763;23;21131;-92
2023/10/18 01:23:54;;;;;;;1.67;1.57;;;5.20;99.90;;;;;;6120418;23;20244;-93
2023/10/18 01:26:24;;;;;;;1.03;1.03;;;5.10;99.90;;;;;;6120816;23;20215;-93
2023/10/18 01:28:51;;;;;;;1.13;1.13;;;5.20;99.90;;;;;;6120338;23;20202;-93
2023/10/18 01:31:17;;;;;;;6.63;2.30;;;5.20;99.90;;;;;;6121269;23;20274;-93
2023/10/18 01:33:45;;;;;;;0.57;0.57;;;5.10;99.90;;;;;;6096235;23;20310;-92
2023/10/18 01:36:13;;;;;;;3.53;1.77;;;5.10;99.90;;;;;;6120046;23;20200;-92
2023/10/18 01:38:42;;;;;;;0.73;0.73;;;5.10;99.90;;;;;;6096492;23;20200;-92
2023/10/18 01:41:25;;;;;;;2.00;1.80;;;5.20;99.90;;;;;;6120135;23;20191;-92
2023/10/18 01:44:07;;;;;;;1.57;0.87;;;5.10;99.90;;;;;;6120190;23;20191;-93
2023/10/18 01:46:46;;;;;;;0.67;0.67;;;5.20;99.90;;;;;;6120585;23;20149;-91
2023/10/18 01:49:21;;;;;;;1.83;1.30;;;5.20;99.90;;;;;;6121037;23;20148;-90
2023/10/18 01:51:51;;;;;;;1.63;1.30;;;5.20;99.90;;;;;;6120742;23;20660;-93
2023/10/18 01:54:17;;;;;;;1.17;1.07;;;5.20;99.90;;;;;;6096390;23;20274;-92
2023/10/18 01:56:46;;;;;;;1.53;1.43;;;5.20;99.90;;;;;;6120078;23;20247;-92
2023/10/18 01:59:19;;;;;;;1.47;1.20;;;5.20;99.90;;;;;;6096725;23;20732;-92
2023/10/18 02:01:51;;;;;;;9.33;2.37;;;5.20;99.90;;;;;;6120103;23;20223;-91
2023/10/18 02:04:26;;;;;;;1.33;1.13;;;5.20;99.90;;;;;;6121212;23;20149;-92
2023/10/18 02:07:02;;;;;;;1.67;1.57;;;5.20;99.90;;;;;;6097146;23;20199;-91
2023/10/18 02:09:48;;;;;;;1.20;1.17;;;5.20;99.90;;;;;;6119753;23;20262;-91
2023/10/18 02:12:21;;;;;;;2.63;1.63;;;5.20;99.90;;;;;;6098979;23;20653;-92
2023/10/18 02:14:51;;;;;;;4.53;1.97;;;5.20;99.90;;;;;;6120077;23;20654;-92
2023/10/18 02:17:18;;;;;;;2.23;2.03;;;5.20;99.90;;;;;;6120158;23;20286;-92
2023/10/18 02:19:44;;;;;;;2.43;1.77;;;5.20;99.90;;;;;;6119782;23;20192;-92
2023/10/18 02:22:13;;;;;;;1.10;1.10;;;5.20;99.90;;;;;;6096146;23;20162;-93
2023/10/18 02:24:39;;;;;;;2.07;1.97;;;5.30;99.90;;;;;;6096058;23;20541;-93
2023/10/18 02:27:09;;;;;;;0.93;0.93;;;5.30;99.90;;;;;;6095194;23;20588;-93
2023/10/18 02:29:35;;;;;;;2.27;2.00;;;5.30;99.90;;;;;;6119859;23;20487;-91
2023/10/18 02:32:21;;;;;;;2.57;1.50;;;5.30;99.90;;;;;;6119711;23;20200;-93
2023/10/18 02:34:47;;;;;;;1.73;1.70;;;5.30;99.90;;;;;;6119692;23;20204;-92
2023/10/18 02:37:15;;;;;;;1.53;1.43;;;5.40;99.90;;;;;;6095615;23;20271;-91
2023/10/18 02:39:41;;;;;;;2.20;2.03;;;5.40;99.90;;;;;;6095490;23;20645;-93
2023/10/18 02:42:07;;;;;;;2.47;2.23;;;5.50;99.90;;;;;;6119923;23;20200;-93
2023/10/18 02:44:35;;;;;;;1.77;1.67;;;5.50;99.90;;;;;;6095491;23;20204;-92
2023/10/18 02:47:12;;;;;;;2.13;1.87;;;5.40;99.90;;;;;;6095890;23;20198;-92
2023/10/18 02:49:40;;;;;;;2.00;1.90;;;5.40;99.90;;;;;;6119622;23;20148;-90
2023/10/18 02:52:09;;;;;;;2.40;2.23;;;5.30;99.90;;;;;;6095407;23;20187;-93
2023/10/18 02:54:35;;;;;;;1.50;1.40;;;5.20;99.90;;;;;;6095933;23;20195;-93
2023/10/18 02:57:01;;;;;;;2.30;2.13;;;5.20;99.90;;;;;;6094484;23;20208;-92
2023/10/18 02:59:29;;;;;;;1.50;1.43;;;5.20;99.90;;;;;;6095286;23;20199;-92
2023/10/18 03:01:56;;;;;;;1.97;1.83;;;5.20;99.90;;;;;;6119713;23;20199;-93
2023/10/18 03:04:24;;;;;;;1.93;1.77;;;5.10;99.90;;;;;;6095045;23;20164;-92
2023/10/18 03:06:50;;;;;;;1.83;1.73;;;5.00;99.90;;;;;;6095245;23;20613;-91
2023/10/18 03:11:57;;;;;;;2.43;2.27;;;4.80;99.90;;;;;;6097516;23;20204;-93
2023/10/18 03:14:39;;;;;;;2.37;1.93;;;4.80;99.90;;;;;;6119372;23;20688;-93
2023/10/18 03:17:18;;;;;;;2.17;2.07;;;4.70;99.90;;;;;;6098330;23;20265;-92
2023/10/18 03:19:44;;;;;;;2.00;1.30;;;4.80;99.90;;;;;;6119667;23;21187;-91
2023/10/18 03:22:11;;;;;;;2.53;1.67;;;4.80;99.90;;;;;;6119814;23;20166;-93
2023/10/18 03:24:37;;;;;;;3.23;2.97;;;4.80;99.90;;;;;;6118870;23;20226;-93
2023/10/18 03:27:08;;;;;;;1.40;1.30;;;4.70;99.90;;;;;;6119037;23;20227;-91
2023/10/18 03:29:37;;;;;;;3.10;2.87;;;4.70;99.90;;;;;;6095336;23;20199;-91
2023/10/18 03:32:07;;;;;;;5.30;2.53;;;4.70;99.90;;;;;;6119212;23;20318;-92
2023/10/18 03:34:37;;;;;;;2.73;1.40;;;4.60;99.90;;;;;;6119119;23;20242;-92
2023/10/18 03:37:04;;;;;;;2.30;1.60;;;4.60;99.90;;;;;;6119601;23;20171;-91
2023/10/18 03:39:30;;;;;;;2.23;2.00;;;4.60;99.90;;;;;;6094640;23;20532;-91
2023/10/18 03:42:00;;;;;;;2.00;1.90;;;4.50;99.90;;;;;;6118799;23;20191;-92
2023/10/18 03:44:27;;;;;;;2.80;2.60;;;4.50;99.90;;;;;;6119342;23;20629;-92
2023/10/18 03:47:03;;;;;;;1.50;1.40;;;4.50;99.90;;;;;;6094683;23;20207;-91
2023/10/18 03:51:57;;;;;;;1.50;1.37;;;4.60;99.90;;;;;;6095329;23;20215;-93
2023/10/18 03:54:26;;;;;;;1.77;1.67;;;4.70;99.90;;;;;;6094821;23;20204;-92
2023/10/18 03:56:53;;;;;;;2.90;2.63;;;4.60;99.90;;;;;;6094994;23;20649;-92
2023/10/18 03:59:20;;;;;;;2.37;2.27;;;4.60;99.90;;;;;;6118818;23;20259;-92
2023/10/18 04:02:07;;;;;;;4.20;3.33;;;4.60;99.90;;;;;;6094450;23;20287;-92
2023/10/18 04:04:38;;;;;;;2.80;2.53;;;4.60;99.90;;;;;;6119109;23;20152;-92
2023/10/18 04:07:17;;;;;;;3.90;3.27;;;4.60;99.90;;;;;;6120172;23;20152;-92
2023/10/18 04:09:54;;;;;;;2.53;1.60;;;4.60;99.90;;;;;;6118868;23;20199;-92
2023/10/18 04:12:22;;;;;;;4.20;1.57;;;4.60;99.90;;;;;;6119029;23;20685;-92
2023/10/18 04:14:56;;;;;;;2.97;2.77;;;4.60;99.90;;;;;;6094092;23;20263;-90
2023/10/18 04:17:36;;;;;;;2.43;2.23;;;4.60;99.90;;;;;;6095755;23;20218;-92
2023/10/18 04:20:22;;;;;;;1.43;1.33;;;4.60;99.90;;;;;;6119044;23;20191;-93
2023/10/18 04:22:51;;;;;;;2.57;2.37;;;4.70;99.90;;;;;;6118785;23;20206;-93
2023/10/18 04:25:27;;;;;;;2.63;1.97;;;4.80;99.90;;;;;;6095165;23;20164;-93
2023/10/18 04:27:57;;;;;;;3.27;1.73;;;4.80;99.90;;;;;;6118500;23;20188;-92
2023/10/18 04:30:24;;;;;;;1.97;1.87;;;4.90;99.90;;;;;;6094952;23;20287;-92
2023/10/18 04:32:59;;;;;;;2.50;2.17;;;4.80;99.90;;;;;;6121040;23;20530;-92
2023/10/18 04:35:30;;;;;;;2.97;1.73;;;4.80;99.90;;;;;;6098614;23;20257;-93
2023/10/18 04:37:56;;;;;;;1.97;1.33;;;4.90;99.90;;;;;;6121025;23;20192;-94
2023/10/18 04:40:22;;;;;;;2.03;1.93;;;4.90;99.90;;;;;;6096300;23;20167;-91
2023/10/18 04:42:54;;;;;;;1.13;1.10;;;4.90;99.90;;;;;;6097709;23;20164;-93
2023/10/18 04:45:23;;;;;;;1.60;1.50;;;4.80;99.90;;;;;;6120840;23;20203;-93
2023/10/18 04:47:50;;;;;;;3.77;2.70;;;4.90;99.90;;;;;;6121277;23;20647;-92
2023/10/18 04:50:29;;;;;;;2.80;2.53;;;4.80;99.90;;;;;;6121465;23;20203;-92
2023/10/18 04:52:58;;;;;;;2.53;2.20;;;4.90;99.90;;;;;;6098911;23;20192;-92
2023/10/18 04:55:25;;;;;;;1.90;1.80;;;4.90;99.90;;;;;;6097858;23;20188;-91
2023/10/18 04:57:53;;;;;;;3.17;2.93;;;4.90;99.90;;;;;;6121784;23;20196;-92
2023/10/18 05:00:34;;;;;;;3.13;2.93;;;5.00;99.90;;;;;;6120417;23;20564;-92
2023/10/18 05:03:02;;;;;;;2.07;1.97;;;4.90;99.90;;;;;;6098961;23;20231;-92
2023/10/18 05:05:27;;;;;;;3.17;2.63;;;5.00;99.90;;;;;;6120609;23;20965;-91
2023/10/18 05:07:54;;;;;;;5.00;4.17;;;4.90;99.90;;;;;;6096351;23;20231;-92
2023/10/18 05:10:21;;;;;;;1.70;1.60;;;5.00;99.90;;;;;;6121124;23;20164;-92
2023/10/18 05:13:10;;;;;;;2.83;2.60;;;4.90;99.90;;;;;;6096968;23;20274;-92
2023/10/18 05:15:36;;;;;;;1.57;1.40;;;4.80;99.90;;;;;;6099907;23;20720;-90
2023/10/18 05:18:05;;;;;;;2.87;2.57;;;4.90;99.90;;;;;;6120280;23;20199;-90
2023/10/18 05:23:21;;;;;;;2.13;2.03;;;4.80;99.90;;;;;;6120501;23;20202;-91
2023/10/18 05:25:48;;;;;;;1.43;1.13;;;4.80;99.90;;;;;;6120440;23;20234;-91
2023/10/18 05:28:17;;;;;;;3.70;1.83;;;4.80;99.90;;;;;;6096487;23;20494;-90
2023/10/18 05:38:48;;;;;;;1.80;1.27;;;4.70;99.90;;;;;;6120648;23;20262;-91
2023/10/18 05:44:00;;;;;;;2.77;2.57;;;4.60;99.90;;;;;;6121073;23;20195;-89
2023/10/18 05:46:34;;;;;;;3.97;2.90;;;4.60;99.90;;;;;;6096589;23;20476;-90
2023/10/18 05:49:00;;;;;;;2.07;1.57;;;4.70;99.90;;;;;;6120840;23;20578;-90
2023/10/18 05:51:38;;;;;;;8.70;1.97;;;4.60;99.90;;;;;;6095823;23;20199;-90
2023/10/18 05:54:04;;;;;;;2.97;2.77;;;4.60;99.90;;;;;;6120099;23;20264;-90
2023/10/18 05:56:31;;;;;;;1.87;1.73;;;4.70;99.90;;;;;;6094049;23;20669;-90
2023/10/18 06:01:43;;;;;;;5.57;2.17;;;4.80;99.90;;;;;;6121399;23;20207;-90
2023/10/18 06:04:09;;;;;;;3.20;2.13;;;4.80;99.90;;;;;;6096217;23;20227;-89
2023/10/18 06:06:38;;;;;;;2.00;1.90;;;4.90;99.90;;;;;;6095584;23;20582;-90
2023/10/18 06:09:26;;;;;;;2.77;2.50;;;4.90;99.90;;;;;;6096038;23;20192;-90
2023/10/18 06:11:52;;;;;;;1.90;1.50;;;4.80;99.90;;;;;;6099367;23;20254;-90
2023/10/18 06:14:18;;;;;;;2.40;2.20;;;4.80;99.90;;;;;;6119643;23;20200;-89
2023/10/18 06:16:51;;;;;;;3.33;2.07;;;4.90;99.90;;;;;;6095404;23;20537;-91
2023/10/18 06:19:22;;;;;;;7.47;2.90;;;5.00;99.90;;;;;;6120328;23;20156;-89
2023/10/18 06:22:08;;;;;;;2.80;2.57;;;5.10;99.90;;;;;;6096484;23;20230;-89
2023/10/18 06:24:33;;;;;;;2.30;2.10;;;5.10;99.90;;;;;;6099010;23;20290;-89
2023/10/18 06:27:00;;;;;;;5.83;2.17;;;5.10;99.90;;;;;;6094715;23;20227;-88
2023/10/18 06:29:25;;;;;;;2.13;2.03;;;5.10;99.90;;;;;;6095374;23;20235;-89
2023/10/18 06:31:53;;;;;;;2.37;2.27;;;5.10;99.90;;;;;;6119499;23;20195;-89
2023/10/18 06:34:22;;;;;;;2.70;2.07;;;5.10;99.90;;;;;;6095926;23;20168;-88
2023/10/18 06:36:49;;;;;;;2.47;2.33;;;5.20;99.90;;;;;;6096321;23;20196;-89
2023/10/18 06:39:28;;;;;;;3.60;3.40;;;5.30;99.90;;;;;;6119539;23;20287;-89
2023/10/18 06:41:55;;;;;;;4.37;2.57;;;5.30;99.90;;;;;;6097134;23;20294;-89
2023/10/18 06:44:27;;;;;;;4.30;1.93;;;5.40;99.90;;;;;;6119395;23;20195;-89
2023/10/18 06:46:53;;;;;;;5.13;2.67;;;5.40;99.90;;;;;;6119181;23;20827;-89
2023/10/18 06:49:19;;;;;;;2.53;1.73;;;5.50;99.90;;;;;;6119918;23;20172;-89
2023/10/18 06:51:49;;;;;;;3.57;2.53;;;5.50;99.90;;;;;;6119609;23;20247;-90
2023/10/18 06:54:19;;;;;;;2.83;2.53;;;5.60;99.90;;;;;;6095132;23;20845;-90
2023/10/18 06:56:53;;;;;;;4.00;1.90;;;5.60;99.90;;;;;;6096400;23;20303;-90
2023/10/18 06:59:26;;;;;;;1.97;1.87;;;5.70;99.90;;;;;;6095427;23;20200;-89
2023/10/18 07:01:59;;;;;;;2.30;2.20;;;5.70;99.90;;;;;;6096636;23;20266;-90
2023/10/18 07:05:08;;;;;;;2.97;2.77;;;5.70;99.90;;;;;;6096199;23;20279;-89
2023/10/18 07:07:19;;;;;;;4.00;3.43;;;5.80;99.90;;;;;;6092434;23;20789;-89
2023/10/18 07:09:45;;;;;;;2.00;1.93;;;5.90;99.90;;;;;;6097655;23;20206;-89
2023/10/18 07:12:11;;;;;;;1.60;1.30;;;6.00;99.90;;;;;;6094821;23;20580;-89
2023/10/18 07:14:41;;;;;;;3.53;2.30;;;6.10;99.90;;;;;;6119642;23;20227;-89
2023/10/18 07:17:09;;;;;;;4.50;4.20;;;6.20;99.90;;;;;;6119162;23;20200;-91
2023/10/18 07:19:51;;;;;;;2.60;2.20;;;6.30;99.90;;;;;;6095860;23;20495;-89
2023/10/18 07:22:21;;;;;;;1.30;1.20;;;6.40;99.90;;;;;;6098587;23;20703;-89
2023/10/18 07:24:59;;;;;;;4.40;2.50;;;6.50;99.90;;;;;;6119318;23;20184;-90
2023/10/18 07:27:29;;;;;;;1.63;1.33;;;6.60;99.90;;;;;;6096785;23;20200;-91
2023/10/18 07:29:58;;;;;;;1.97;1.90;;;6.70;99.90;;;;;;6119519;23;20200;-91
2023/10/18 07:32:24;;;;;;;2.00;1.90;;;6.70;99.90;;;;;;6119559;23;20518;-90
2023/10/18 07:34:54;;;;;;;2.03;1.93;;;6.80;99.90;;;;;;6119032;23;20236;-89
2023/10/18 07:37:24;;;;;;;1.73;1.63;;;6.90;99.90;;;;;;6120062;23;20215;-89
2023/10/18 07:39:56;;;;;;;3.43;3.10;;;6.90;99.90;;;;;;6095157;23;20172;-91
2023/10/18 07:42:34;;;;;;;1.73;1.63;;;7.00;99.90;;;;;;6118890;23;20200;-91
2023/10/18 07:45:08;;;;;;;3.13;2.63;;;7.00;99.90;;;;;;6119401;23;20637;-90
2023/10/18 07:47:37;;;;;;;2.30;2.13;;;7.00;99.90;;;;;;6095252;23;20218;-90
2023/10/18 07:50:34;;;;;;;3.07;2.80;;;7.10;99.90;;;;;;6119234;23;20806;-91
2023/10/18 07:52:56;;;;;;;1.80;1.67;;;7.10;99.90;;;;;;6119066;23;20188;-90
2023/10/18 07:55:22;;;;;;;5.17;3.23;;;7.10;99.90;;;;;;6094528;23;20159;-89
2023/10/18 07:57:54;;;;;;;1.87;1.77;;;7.20;99.90;;;;;;6120006;23;20166;-90
2023/10/18 08:00:26;;;;;;;3.93;3.63;;;7.20;99.90;;;;;;6094841;23;20219;-90
2023/10/18 08:02:52;;;;;;;1.43;1.33;;;7.30;99.90;;;;;;6118430;23;20203;-89
2023/10/18 08:05:22;;;;;;;2.00;1.90;;;7.30;99.90;;;;;;6093896;23;20665;-89
2023/10/18 08:07:57;;;;;;;2.27;2.07;;;7.40;99.90;;;;;;6119405;23;20191;-90
2023/10/18 08:10:23;;;;;;;3.67;3.00;;;7.40;99.90;;;;;;6118314;23;20199;-89
2023/10/18 08:13:07;;;;;;;0.93;0.93;;;7.40;99.90;;;;;;6094979;23;20161;-90
2023/10/18 08:15:37;;;;;;;3.17;2.87;;;7.50;99.90;;;;;;6097916;23;20219;-89
2023/10/18 08:18:14;;;;;;;3.20;2.90;;;7.60;99.90;;;;;;6118385;23;20326;-89
2023/10/18 08:26:03;;;;;;;3.47;3.27;;;7.70;99.90;;;;;;6120355;23;20191;-90
2023/10/18 08:28:39;;;;;;;4.20;2.77;;;7.70;99.90;;;;;;6119282;23;20167;-89
2023/10/18 08:31:17;;;;;;;3.00;2.73;;;7.80;99.90;;;;;;6096393;23;20259;-89
2023/10/18 08:33:44;;;;;;;1.57;1.47;;;7.80;99.90;;;;;;6094527;23;20195;-89
2023/10/18 08:36:13;;;;;;;1.87;1.77;;;7.90;99.90;;;;;;6094543;23;20215;-89
2023/10/18 08:38:41;;;;;;;1.80;1.30;;;7.90;99.90;;;;;;6095343;23;20207;-90
2023/10/18 08:41:15;;;;;;;5.20;2.77;;;7.90;99.90;;;;;;6094935;23;20196;-89
2023/10/18 08:44:08;;;;;;;1.73;1.73;;;8.00;99.90;;;;;;6118546;23;20235;-90
2023/10/18 08:46:41;;;;;;;4.00;2.83;;;8.10;99.90;;;;;;6118808;23;20247;-89
2023/10/18 08:49:08;;;;;;;7.70;2.63;;;8.20;99.90;;;;;;6119163;23;20140;-88
2023/10/18 08:51:36;;;;;;;2.40;1.13;;;8.20;99.90;;;;;;6118783;23;20287;-89
2023/10/18 08:54:02;;;;;;;1.50;1.40;;;8.30;99.90;;;;;;6119076;23;20203;-89
2023/10/18 08:56:33;;;;;;;2.83;2.50;;;8.50;99.90;;;;;;6119019;23;20212;-90
2023/10/18 08:59:05;;;;;;;1.67;1.30;;;8.50;99.90;;;;;;6095327;23;20592;-89
2023/10/18 09:01:34;;;;;;;3.73;2.97;;;8.50;99.90;;;;;;6120351;23;20155;-88
2023/10/18 09:04:00;;;;;;;2.20;2.10;;;8.70;99.90;;;;;;6096030;23;20494;-88
2023/10/18 09:06:32;;;;;;;4.43;2.13;;;8.80;99.90;;;;;;6118478;23;20220;-88
2023/10/18 09:09:07;;;;;;;2.23;1.80;;;8.90;99.90;;;;;;6119005;23;20196;-89
2023/10/18 09:11:36;;;;;;;7.47;3.37;;;9.00;99.90;;;;;;6096471;23;20708;-89
2023/10/18 09:14:08;;;;;;;2.10;2.00;;;9.00;99.90;;;;;;6094346;23;20188;-88
2023/10/18 09:16:38;;;;;;;2.23;2.03;;;9.20;99.90;;;;;;6119266;23;20184;-89
2023/10/18 09:19:06;;;;;;;7.07;3.63;;;9.30;99.90;;;;;;6121447;23;20479;-89
2023/10/18 09:24:22;;;;;;;1.57;1.47;;;9.40;99.90;;;;;;6099650;23;20576;-89
2023/10/18 09:26:50;;;;;;;2.13;2.03;;;9.50;99.90;;;;;;6120578;23;20246;-89
2023/10/18 09:29:17;;;;;;;6.17;4.30;;;9.50;99.90;;;;;;6120610;23;21087;-88
2023/10/18 09:34:54;;;;;;;4.63;4.23;;;9.60;99.90;;;;;;6088910;23;20196;-88
2023/10/18 09:37:28;;;;;;;2.03;1.20;;;9.60;99.90;;;;;;6096002;23;20272;-88
2023/10/18 09:39:56;;;;;;;9.03;2.30;;;9.60;99.90;;;;;;6119701;23;20732;-88
2023/10/18 09:42:22;;;;;;;2.27;2.10;;;9.70;99.90;;;;;;6119583;23;20196;-88
2023/10/18 09:44:47;;;;;;;2.00;1.87;;;9.70;99.90;;;;;;6119725;23;20200;-89
2023/10/18 09:47:14;;;;;;;4.00;2.07;;;9.70;99.90;;;;;;6095359;23;20203;-89
2023/10/18 09:49:42;;;;;;;4.20;3.03;;;9.70;99.90;;;;;;6119802;23;20247;-88
2023/10/18 09:52:12;;;;;;;4.87;2.77;;;9.70;99.90;;;;;;6096833;23;20956;-88
2023/10/18 09:54:50;;;;;;;3.73;2.57;;;9.80;99.90;;;;;;6095992;23;20688;-89
2023/10/18 09:57:23;;;;;;;1.47;1.37;;;9.70;99.90;;;;;;6119087;23;20207;-91
2023/10/18 09:59:57;;;;;;;2.80;2.53;;;9.80;99.90;;;;;;6120031;23;20211;-89
2023/10/18 10:02:24;;;;;;;2.13;1.80;;;9.90;99.90;;;;;;6095481;23;20897;-90
2023/10/18 10:04:55;;;;;;;1.40;1.30;;;9.90;99.90;;;;;;6120158;23;20257;-89
2023/10/18 10:07:42;;;;;;;3.77;2.53;;;10.00;99.90;;;;;;6120273;23;20164;-88
2023/10/18 10:10:09;;;;;;;4.07;3.07;;;10.00;99.90;;;;;;6120543;23;20155;-89
2023/10/18 10:12:35;;;;;;;1.70;1.60;;;10.00;99.90;;;;;;6095409;23;20571;-89
2023/10/18 10:15:09;;;;;;;2.60;2.33;;;10.20;99.90;;;;;;6119939;23;20210;-89
2023/10/18 10:17:36;;;;;;;2.57;2.30;;;10.20;99.90;;;;;;6119850;23;20208;-90
2023/10/18 10:20:14;;;;;;;2.27;2.07;;;10.30;99.90;;;;;;6095846;23;20215;-92
2023/10/18 10:22:45;;;;;;;2.10;1.87;;;10.30;99.90;;;;;;6119960;23;20152;-90
2023/10/18 10:25:31;;;;;;;3.57;2.57;;;10.40;99.90;;;;;;6120293;23;20160;-91
2023/10/18 10:27:59;;;;;;;2.03;1.93;;;10.50;99.90;;;;;;6120531;23;20207;-90
2023/10/18 10:30:37;;;;;;;3.07;2.47;;;10.50;99.90;;;;;;6119894;23;20291;-91
2023/10/18 10:33:05;;;;;;;1.37;1.27;;;10.50;99.90;;;;;;6119990;23;20206;-91
2023/10/18 10:35:35;;;;;;;2.87;2.67;;;10.50;99.90;;;;;;6096023;23;20527;-91
2023/10/18 10:38:05;;;;;;;1.90;1.80;;;10.50;99.90;;;;;;6119116;23;20192;-91
2023/10/18 10:43:02;;;;;;;2.03;1.07;;;10.60;99.90;;;;;;6120208;23;20164;-92
2023/10/18 10:45:38;;;;;;;1.83;1.73;;;10.60;99.90;;;;;;6119520;23;20935;-93
2023/10/18 10:51:20;;;;;;;2.30;1.43;;;10.60;99.90;;;;;;6120557;23;20211;-91
2023/10/18 10:54:01;;;;;;;1.60;1.47;;;10.60;99.90;;;;;;6119619;23;20199;-90
2023/10/18 10:56:26;;;;;;;2.93;2.33;;;10.60;99.90;;;;;;6119636;23;20211;-91
2023/10/18 10:59:03;;;;;;;2.27;2.10;;;10.70;99.90;;;;;;6119518;23;20202;-92
2023/10/18 11:01:39;;;;;;;2.53;2.33;;;10.70;99.90;;;;;;6119837;23;20162;-93
2023/10/18 11:04:11;;;;;;;0.83;0.83;;;10.80;99.90;;;;;;6120701;23;20529;-93
2023/10/18 11:06:44;;;;;;;0.87;0.87;;;10.80;99.90;;;;;;6119665;23;20200;-90
2023/10/18 11:09:17;;;;;;;2.83;2.57;;;10.80;99.90;;;;;;6119387;23;20704;-93
2023/10/18 11:11:45;;;;;;;1.60;1.03;;;10.80;99.90;;;;;;6119896;23;20196;-93
2023/10/18 11:14:18;;;;;;;3.07;1.67;;;10.80;99.90;;;;;;6119404;23;20196;-92
2023/10/18 11:16:53;;;;;;;1.17;1.07;;;10.90;99.90;;;;;;6095780;23;20216;-92
2023/10/18 11:19:28;;;;;;;2.83;1.63;;;10.90;99.90;;;;;;6120438;23;20159;-90
2023/10/18 11:21:58;;;;;;;2.50;2.30;;;10.90;99.90;;;;;;6096835;23;20179;-93
2023/10/18 11:24:25;;;;;;;2.27;2.10;;;10.90;99.90;;;;;;6095539;23;20226;-92
2023/10/18 11:26:51;;;;;;;2.40;1.57;;;11.00;99.90;;;;;;6095231;23;20620;-91
2023/10/18 11:29:24;;;;;;;2.60;1.73;;;11.10;99.90;;;;;;6119593;23;20200;-92
2023/10/18 11:31:55;;;;;;;1.73;0.93;;;11.20;99.90;;;;;;6119599;23;20199;-91
2023/10/18 11:34:25;;;;;;;2.13;1.23;;;11.10;99.90;;;;;;6121049;23;20144;-92
2023/10/18 11:36:53;;;;;;;1.43;1.33;;;11.20;99.90;;;;;;6119604;23;20205;-92
2023/10/18 11:39:19;;;;;;;1.77;1.47;;;11.20;99.90;;;;;;6118689;23;20300;-92
2023/10/18 11:41:49;;;;;;;2.60;1.13;;;11.20;99.90;;;;;;6095041;23;20209;-92
2023/10/18 11:44:31;;;;;;;1.90;1.27;;;11.30;99.90;;;;;;6119726;23;20908;-91
2023/10/18 11:47:20;;;;;;;1.57;1.47;;;11.30;99.90;;;;;;6119463;23;20526;-91
2023/10/18 11:49:53;;;;;;;2.40;2.20;;;11.40;99.90;;;;;;6119486;23;21041;-92
2023/10/18 11:52:25;;;;;;;20.20;3.13;;;11.40;99.90;;;;;;6120009;23;20141;-92
2023/10/18 11:54:54;;;;;;;0.97;0.97;;;11.40;99.90;;;;;;6096599;23;20180;-92
2023/10/18 11:57:35;;;;;;;1.20;1.10;;;11.40;99.90;;;;;;6095413;23;20215;-92
2023/10/18 12:00:27;;;;;;;2.20;1.27;;;11.30;99.90;;;;;;6119382;23;20301;-91
2023/10/18 12:02:54;;;;;;;2.00;1.10;;;11.40;99.90;;;;;;6119254;23;20283;-91
2023/10/18 12:05:27;;;;;;;6.83;2.43;;;11.30;99.90;;;;;;6095268;23;20207;-91
2023/10/18 12:07:56;;;;;;;2.57;2.40;;;11.40;99.90;;;;;;6097130;23;20628;-92
2023/10/18 12:10:34;;;;;;;1.97;1.40;;;11.40;99.90;;;;;;6118910;23;20211;-90
2023/10/18 12:13:02;;;;;;;4.20;2.40;;;11.40;99.90;;;;;;6119562;23;20163;-91
2023/10/18 12:15:30;;;;;;;1.97;1.07;;;11.40;99.90;;;;;;6093687;23;20258;-89
2023/10/18 12:17:56;;;;;;;2.50;2.27;;;11.40;99.90;;;;;;6118883;23;20284;-90
2023/10/18 12:20:35;;;;;;;2.90;2.70;;;11.40;99.90;;;;;;6093883;23;20200;-91
2023/10/18 12:23:10;;;;;;;5.13;3.97;;;11.30;99.90;;;;;;6097474;23;20215;-91
2023/10/18 12:25:44;;;;;;;1.97;1.20;;;11.40;99.90;;;;;;6119528;23;20144;-91
2023/10/18 12:28:15;;;;;;;1.43;1.33;;;11.40;99.90;;;;;;6096164;23;20147;-92
2023/10/18 12:30:51;;;;;;;1.23;1.13;;;11.30;99.90;;;;;;6119163;23;21027;-92
2023/10/18 12:33:25;;;;;;;2.60;1.57;;;11.40;99.90;;;;;;6119164;23;20653;-92
2023/10/18 12:35:52;;;;;;;1.07;1.07;;;11.40;99.90;;;;;;6118934;23;21190;-93
2023/10/18 12:38:31;;;;;;;2.37;1.67;;;11.40;99.90;;;;;;6118573;23;20195;-92
2023/10/18 12:43:45;;;;;;;0.30;0.30;;;11.50;99.90;;;;;;6118708;23;20200;-94
2023/10/18 12:46:17;;;;;;;2.87;1.60;;;11.50;99.90;;;;;;6096076;23;20574;-90
2023/10/18 12:48:43;;;;;;;1.63;1.33;;;11.50;99.90;;;;;;6119173;23;20200;-93
2023/10/18 12:51:12;;;;;;;1.27;0.93;;;11.50;99.90;;;;;;6119183;23;20207;-92
2023/10/18 12:53:42;;;;;;;10.17;1.63;;;11.60;99.90;;;;;;6097034;23;20592;-94
2023/10/18 12:59:12;;;;;;;2.63;1.70;;;11.60;99.90;;;;;;6121333;23;20524;-90
2023/10/18 13:04:07;;;;;;;2.83;2.47;;;11.60;99.90;;;;;;6097529;23;20226;-92
2023/10/18 13:06:44;;;;;;;3.13;1.37;;;11.60;99.90;;;;;;6121804;23;20732;-90
2023/10/18 13:09:19;;;;;;;2.90;1.83;;;11.70;99.90;;;;;;6098669;23;20206;-93
2023/10/18 13:14:31;;;;;;;2.33;1.83;;;11.80;99.90;;;;;;6122259;23;20203;-93
2023/10/18 13:17:00;;;;;;;1.77;1.23;;;11.90;99.90;;;;;;6099525;23;20206;-92
2023/10/18 13:19:29;;;;;;;2.27;1.40;;;11.80;99.90;;;;;;6121148;23;20606;-95
2023/10/18 13:21:55;;;;;;;1.40;1.30;;;11.90;99.90;;;;;;6098111;23;20275;-93
2023/10/18 13:26:53;;;;;;;2.33;2.13;;;11.80;99.90;;;;;;6120868;23;20203;-93
2023/10/18 13:31:45;;;;;;;3.27;1.67;;;11.80;99.90;;;;;;6122419;23;20270;-94
2023/10/18 13:34:18;;;;;;;1.73;1.63;;;11.70;99.90;;;;;;6096893;23;20168;-92
2023/10/18 13:36:45;;;;;;;0.97;0.97;;;11.70;99.90;;;;;;6121418;23;20207;-94
2023/10/18 13:39:11;;;;;;;2.40;2.20;;;11.70;99.90;;;;;;6096075;23;20196;-92
2023/10/18 13:41:39;;;;;;;1.17;1.07;;;11.60;99.90;;;;;;6120585;23;20573;-92
2023/10/18 13:44:08;;;;;;;3.67;2.30;;;11.60;99.90;;;;;;6097029;23;20192;-91
2023/10/18 13:46:36;;;;;;;4.43;3.63;;;11.60;99.90;;;;;;6096392;23;20164;-89
2023/10/18 13:49:03;;;;;;;2.63;2.03;;;11.50;99.90;;;;;;6096601;23;20168;-92
2023/10/18 13:51:34;;;;;;;5.00;2.83;;;11.60;99.90;;;;;;6095960;23;20932;-95
2023/10/18 13:54:01;;;;;;;5.63;4.17;;;11.40;99.90;;;;;;6097291;23;20199;-91
2023/10/18 13:56:26;;;;;;;2.37;2.10;;;11.50;99.90;;;;;;6095848;23;20684;-93
2023/10/18 13:58:52;;;;;;;1.50;1.40;;;11.30;99.90;;;;;;6095683;23;20191;-93
2023/10/18 14:01:18;;;;;;;1.70;1.40;;;11.20;99.90;;;;;;6097470;23;20160;-92
2023/10/18 14:03:47;;;;;;;2.43;2.23;;;11.20;99.90;;;;;;6096499;23;20250;-92
2023/10/18 14:06:14;;;;;;;2.60;1.93;;;11.20;99.90;;;;;;6097384;23;20211;-94
2023/10/18 14:08:43;;;;;;;3.80;2.33;;;11.10;99.90;;;;;;6099608;23;20196;-93